createdAt,value
2023-02-13T00:00:05.763Z,103717.47
2023-02-13T00:02:32.600Z,103711.44
2023-02-13T00:04:59.671Z,103710.53
2023-02-13T00:07:26.478Z,103716.44
2023-02-13T00:09:53.255Z,103714.78
2023-02-13T00:12:20.145Z,103696.13
2023-02-13T00:14:47.214Z,103710.41
2023-02-13T00:17:13.953Z,103704.34
2023-02-13T00:19:40.710Z,103704.34
2023-02-13T00:22:07.509Z,103705.16
2023-02-13T00:24:34.351Z,103706.03
2023-02-13T00:27:01.102Z,103706.91
2023-02-13T00:29:28.236Z,103701.78
2023-02-13T00:31:55.167Z,103701.78
2023-02-13T00:34:21.984Z,103696.63
2023-02-13T00:36:49.173Z,103701.00
2023-02-13T00:39:15.930Z,103701.78
2023-02-13T00:41:42.700Z,103694.84
2023-02-13T00:44:10.019Z,103693.94
2023-02-13T00:46:38.536Z,103699.09
2023-02-13T00:49:05.800Z,103688.69
2023-02-13T00:51:32.708Z,103688.78
2023-02-13T00:53:59.567Z,103685.34
2023-02-13T00:56:26.321Z,103686.00
2023-02-13T00:58:53.077Z,103682.38
2023-02-13T01:01:19.935Z,103685.72
2023-02-13T01:03:47.258Z,103682.25
2023-02-13T01:06:14.074Z,103684.81
2023-02-13T01:08:41.573Z,103687.38
2023-02-13T01:11:08.333Z,103686.50
2023-02-13T01:13:35.203Z,103689.84
2023-02-13T01:16:02.056Z,103686.38
2023-02-13T01:18:29.389Z,103689.84
2023-02-13T01:20:59.814Z,103694.09
2023-02-13T01:23:29.762Z,103696.53
2023-02-13T01:25:56.518Z,103683.94
2023-02-13T01:28:23.485Z,103688.03
2023-02-13T01:30:54.057Z,103690.59
2023-02-13T01:33:21.474Z,103688.69
2023-02-13T01:35:48.392Z,103686.13
2023-02-13T01:38:15.186Z,103681.09
2023-02-13T01:40:48.962Z,103676.88
2023-02-13T01:43:16.075Z,103679.56
2023-02-13T01:45:44.395Z,103682.00
2023-02-13T01:48:15.242Z,103686.22
2023-02-13T01:50:41.986Z,103680.22
2023-02-13T01:53:08.737Z,103677.63
2023-02-13T01:55:37.704Z,103676.75
2023-02-13T01:58:09.449Z,103674.03
2023-02-13T02:00:36.736Z,103671.22
2023-02-13T02:03:24.834Z,103663.50
2023-02-13T02:05:52.350Z,103665.16
2023-02-13T02:08:19.859Z,103658.22
2023-02-13T02:10:46.891Z,103667.63
2023-02-13T02:13:16.972Z,103665.06
2023-02-13T02:15:44.187Z,103655.66
2023-02-13T02:18:24.073Z,103659.91
2023-02-13T02:21:09.023Z,103654.75
2023-02-13T02:23:48.411Z,103652.97
2023-02-13T02:26:18.386Z,103654.66
2023-02-13T02:28:48.390Z,103652.97
2023-02-13T02:31:18.523Z,103655.53
2023-02-13T02:33:57.892Z,103663.25
2023-02-13T02:36:27.376Z,103662.47
2023-02-13T02:39:11.746Z,103659.91
2023-02-13T02:41:45.028Z,103660.78
2023-02-13T02:44:17.632Z,103658.22
2023-02-13T02:47:15.258Z,103646.94
2023-02-13T02:50:01.907Z,103652.97
2023-02-13T02:52:35.330Z,103637.50
2023-02-13T02:55:11.027Z,103645.13
2023-02-13T02:58:02.880Z,103645.25
2023-02-13T03:00:51.116Z,103635.97
2023-02-13T03:03:41.603Z,103646.94
2023-02-13T03:06:21.879Z,103643.59
2023-02-13T03:09:12.836Z,103645.38
2023-02-13T03:12:00.712Z,103644.59
2023-02-13T03:14:28.084Z,103646.16
2023-02-13T03:17:14.968Z,103651.16
2023-02-13T03:20:05.465Z,103645.91
2023-02-13T03:22:38.125Z,103649.25
2023-02-13T03:25:12.168Z,103650.13
2023-02-13T03:28:03.706Z,103650.94
2023-02-13T03:30:45.576Z,103651.03
2023-02-13T03:33:24.903Z,103654.50
2023-02-13T03:36:10.259Z,103645.91
2023-02-13T03:38:55.432Z,103639.84
2023-02-13T03:41:25.124Z,103634.84
2023-02-13T03:43:59.270Z,103644.38
2023-02-13T03:46:27.296Z,103646.78
2023-02-13T03:49:13.858Z,103644.97
2023-02-13T03:51:43.998Z,103649.25
2023-02-13T03:54:48.379Z,103656.19
2023-02-13T03:57:35.836Z,103639.34
2023-02-13T04:00:05.004Z,103639.34
2023-02-13T04:02:35.773Z,103642.69
2023-02-13T04:05:09.505Z,103638.06
2023-02-13T04:07:36.446Z,103642.41
2023-02-13T04:10:05.886Z,103640.66
2023-02-13T04:12:38.236Z,103639.84
2023-02-13T04:15:11.694Z,103647.56
2023-02-13T04:17:51.740Z,103644.97
2023-02-13T04:20:18.845Z,103631.47
2023-02-13T04:22:47.380Z,103639.84
2023-02-13T04:25:16.680Z,103645.91
2023-02-13T04:27:43.492Z,103645.13
2023-02-13T04:30:10.667Z,103642.56
2023-02-13T04:32:37.454Z,103638.97
2023-02-13T04:35:04.313Z,103634.69
2023-02-13T04:37:31.098Z,103634.69
2023-02-13T04:39:58.069Z,103638.84
2023-02-13T04:42:24.891Z,103645.91
2023-02-13T04:44:51.711Z,103641.66
2023-02-13T04:47:18.719Z,103638.06
2023-02-13T04:49:45.495Z,103627.91
2023-02-13T04:52:12.530Z,103634.69
2023-02-13T04:54:39.244Z,103634.44
2023-02-13T04:57:06.062Z,103632.78
2023-02-13T04:59:32.911Z,103625.81
2023-02-13T05:01:59.640Z,103628.56
2023-02-13T05:04:26.943Z,103632.94
2023-02-13T05:06:53.783Z,103615.94
2023-02-13T05:09:20.516Z,103618.50
2023-02-13T05:11:47.327Z,103608.97
2023-02-13T05:14:14.160Z,103609.91
2023-02-13T05:16:40.942Z,103608.97
2023-02-13T05:19:07.847Z,103605.41
2023-02-13T05:21:53.560Z,103606.31
2023-02-13T05:24:20.747Z,103607.44
2023-02-13T05:26:48.316Z,103612.34
2023-02-13T05:29:22.471Z,103603.84
2023-02-13T05:31:50.720Z,103607.44
2023-02-13T05:34:17.507Z,103606.41
2023-02-13T05:36:44.345Z,103601.41
2023-02-13T05:39:11.084Z,103602.19
2023-02-13T05:41:37.832Z,103605.66
2023-02-13T05:44:04.644Z,103606.69
2023-02-13T05:46:31.451Z,103605.03
2023-02-13T05:48:58.280Z,103604.09
2023-02-13T05:51:25.112Z,103606.41
2023-02-13T05:53:51.973Z,103612.34
2023-02-13T05:56:18.706Z,103599.50
2023-02-13T05:58:45.650Z,103602.97
2023-02-13T06:01:12.969Z,103602.06
2023-02-13T06:03:40.553Z,103608.09
2023-02-13T06:06:07.480Z,103607.22
2023-02-13T06:08:34.376Z,103598.69
2023-02-13T06:11:01.700Z,103605.66
2023-02-13T06:13:29.251Z,103604.00
2023-02-13T06:15:56.365Z,103612.59
2023-02-13T06:18:23.616Z,103609.91
2023-02-13T06:20:50.603Z,103609.78
2023-02-13T06:23:19.530Z,103613.25
2023-02-13T06:25:46.285Z,103606.31
2023-02-13T06:28:13.109Z,103606.69
2023-02-13T06:30:39.903Z,103612.75
2023-02-13T06:33:06.800Z,103612.84
2023-02-13T06:35:33.595Z,103615.44
2023-02-13T06:38:00.405Z,103613.72
2023-02-13T06:40:27.213Z,103614.66
2023-02-13T06:42:53.956Z,103614.00
2023-02-13T06:45:20.803Z,103619.25
2023-02-13T06:47:48.459Z,103619.25
2023-02-13T06:50:17.100Z,103616.03
2023-02-13T06:52:48.399Z,103610.00
2023-02-13T06:55:15.539Z,103614.47
2023-02-13T06:57:42.905Z,103616.78
2023-02-13T07:00:13.102Z,103621.16
2023-02-13T07:02:40.593Z,103623.75
2023-02-13T07:05:08.025Z,103624.50
2023-02-13T07:07:35.989Z,103635.72
2023-02-13T07:10:03.718Z,103624.50
2023-02-13T07:12:32.542Z,103635.72
2023-02-13T07:14:59.364Z,103633.91
2023-02-13T07:17:26.797Z,103633.03
2023-02-13T07:19:53.534Z,103630.47
2023-02-13T07:22:20.390Z,103636.59
2023-02-13T07:24:47.454Z,103637.38
2023-02-13T07:27:14.265Z,103640.84
2023-02-13T07:29:41.097Z,103636.47
2023-02-13T07:32:09.137Z,103634.69
2023-02-13T07:34:35.953Z,103631.47
2023-02-13T07:37:02.753Z,103624.78
2023-02-13T07:39:31.461Z,103625.66
2023-02-13T07:41:58.301Z,103621.16
2023-02-13T07:44:25.120Z,103634.19
2023-02-13T07:46:51.917Z,103629.91
2023-02-13T07:49:18.753Z,103629.41
2023-02-13T07:51:45.478Z,103635.94
2023-02-13T07:54:12.249Z,103635.16
2023-02-13T07:56:39.063Z,103644.78
2023-02-13T07:59:07.659Z,103647.47
2023-02-13T08:01:34.814Z,103645.16
2023-02-13T08:04:01.716Z,103641.94
2023-02-13T08:06:28.597Z,103650.69
2023-02-13T08:09:15.378Z,103653.50
2023-02-13T08:11:54.012Z,103652.69
2023-02-13T08:14:24.241Z,103657.22
2023-02-13T08:16:51.346Z,103655.78
2023-02-13T08:19:18.808Z,103663.84
2023-02-13T08:21:45.541Z,103663.22
2023-02-13T08:24:12.900Z,103672.09
2023-02-13T08:26:40.057Z,103666.28
2023-02-13T08:29:07.190Z,103670.75
2023-02-13T08:31:34.402Z,103660.72
2023-02-13T08:34:01.273Z,103661.97
2023-02-13T08:36:28.580Z,103656.28
2023-02-13T08:38:55.448Z,103663.47
2023-02-13T08:41:23.140Z,103657.78
2023-02-13T08:43:50.138Z,103662.41
2023-02-13T08:46:17.656Z,103661.09
2023-02-13T08:48:44.517Z,103661.34
2023-02-13T08:51:12.970Z,103666.03
2023-02-13T08:53:40.876Z,103653.50
2023-02-13T08:56:07.735Z,103666.66
2023-02-13T08:58:34.605Z,103663.50
2023-02-13T09:01:04.286Z,103661.19
2023-02-13T09:03:31.038Z,103665.00
2023-02-13T09:06:02.641Z,103662.00
2023-02-13T09:08:29.802Z,103662.63
2023-02-13T09:10:57.886Z,103662.03
2023-02-13T09:13:24.764Z,103659.16
2023-02-13T09:15:51.664Z,103653.47
2023-02-13T09:18:18.485Z,103659.75
2023-02-13T09:20:45.310Z,103651.69
2023-02-13T09:23:12.118Z,103656.84
2023-02-13T09:25:38.963Z,103653.34
2023-02-13T09:28:05.769Z,103660.66
2023-02-13T09:30:32.624Z,103663.00
2023-02-13T09:32:59.388Z,103659.78
2023-02-13T09:35:26.108Z,103666.06
2023-02-13T09:37:52.892Z,103656.63
2023-02-13T09:40:31.186Z,103658.88
2023-02-13T09:43:05.192Z,103657.44
2023-02-13T09:45:32.211Z,103659.34
2023-02-13T09:47:59.672Z,103655.88
2023-02-13T09:50:29.546Z,103658.22
2023-02-13T09:52:57.429Z,103655.97
2023-02-13T09:55:27.242Z,103660.13
2023-02-13T09:58:03.613Z,103666.41
2023-02-13T10:00:37.022Z,103662.94
2023-02-13T10:03:28.318Z,103657.88
2023-02-13T10:05:58.613Z,103658.13
2023-02-13T10:08:25.491Z,103663.50
2023-02-13T10:11:18.473Z,103658.66
2023-02-13T10:13:54.543Z,103640.50
2023-02-13T10:16:27.630Z,103662.16
2023-02-13T10:19:13.939Z,103665.63
2023-02-13T10:21:48.438Z,103660.91
2023-02-13T10:24:21.254Z,103657.19
2023-02-13T10:26:48.276Z,103660.25
2023-02-13T10:29:33.597Z,103654.28
2023-02-13T10:32:04.010Z,103655.19
2023-02-13T10:34:34.661Z,103657.31
2023-02-13T10:37:02.786Z,103651.16
2023-02-13T10:39:30.700Z,103647.00
2023-02-13T10:41:58.444Z,103634.91
2023-02-13T10:44:44.036Z,103642.81
2023-02-13T10:47:18.654Z,103643.72
2023-02-13T10:49:51.422Z,103647.97
2023-02-13T10:52:30.229Z,103638.91
2023-02-13T10:55:05.915Z,103636.63
2023-02-13T10:57:41.702Z,103637.88
2023-02-13T11:00:11.508Z,103635.50
2023-02-13T11:02:38.681Z,103641.34
2023-02-13T11:05:17.953Z,103642.03
2023-02-13T11:07:46.895Z,103635.16
2023-02-13T11:10:15.812Z,103618.88
2023-02-13T11:12:43.212Z,103631.25
2023-02-13T11:15:21.091Z,103628.06
2023-02-13T11:17:49.080Z,103631.31
2023-02-13T11:20:27.318Z,103619.41
2023-02-13T11:22:55.144Z,103619.59
2023-02-13T11:25:31.847Z,103619.22
2023-02-13T11:28:16.673Z,103618.66
2023-02-13T11:30:44.248Z,103620.88
2023-02-13T11:33:17.128Z,103608.16
2023-02-13T11:35:46.075Z,103611.16
2023-02-13T11:38:15.744Z,103604.94
2023-02-13T11:40:47.924Z,103597.09
2023-02-13T11:43:36.768Z,103608.16
2023-02-13T11:46:08.245Z,103607.16
2023-02-13T11:48:35.635Z,103605.47
2023-02-13T11:51:03.600Z,103590.19
2023-02-13T11:53:33.045Z,103588.78
2023-02-13T11:56:05.292Z,103594.75
2023-02-13T11:58:32.297Z,103586.38
2023-02-13T12:01:17.961Z,103581.19
2023-02-13T12:03:44.816Z,103575.75
2023-02-13T12:06:13.488Z,103575.13
2023-02-13T12:08:41.310Z,103575.94
2023-02-13T12:11:21.301Z,103572.16
2023-02-13T12:13:48.941Z,103563.69
2023-02-13T12:16:27.460Z,103570.25
2023-02-13T12:18:56.233Z,103562.00
2023-02-13T12:21:23.016Z,103565.69
2023-02-13T12:24:08.226Z,103564.09
2023-02-13T12:26:38.568Z,103562.31
2023-02-13T12:29:10.805Z,103559.88
2023-02-13T12:31:37.587Z,103563.69
2023-02-13T12:34:21.078Z,103560.31
2023-02-13T12:36:47.837Z,103546.38
2023-02-13T12:39:14.599Z,103558.97
2023-02-13T12:41:44.576Z,103565.88
2023-02-13T12:44:28.497Z,103569.94
2023-02-13T12:47:05.376Z,103560.06
2023-02-13T12:49:32.153Z,103559.56
2023-02-13T12:52:11.889Z,103556.50
2023-02-13T12:54:41.349Z,103556.09
2023-02-13T12:57:15.506Z,103557.25
2023-02-13T13:00:00.586Z,103554.78
2023-02-13T13:02:59.965Z,103548.13
2023-02-13T13:05:43.288Z,103535.63
2023-02-13T13:08:10.134Z,103530.47
2023-02-13T13:10:45.848Z,103534.28
2023-02-13T13:13:23.998Z,103530.97
2023-02-13T13:15:56.657Z,103524.09
2023-02-13T13:18:26.334Z,103523.22
2023-02-13T13:21:11.977Z,103520.72
2023-02-13T13:24:00.255Z,103515.81
2023-02-13T13:26:42.389Z,103509.06
2023-02-13T13:29:19.058Z,103517.38
2023-02-13T13:31:52.708Z,103513.28
2023-02-13T13:34:22.479Z,103505.16
2023-02-13T13:36:52.023Z,103500.75
2023-02-13T13:39:29.336Z,103506.91
2023-02-13T13:42:07.374Z,103494.34
2023-02-13T13:44:57.239Z,103489.34
2023-02-13T13:47:28.734Z,103490.84
2023-02-13T13:49:57.169Z,103492.84
2023-02-13T13:52:34.224Z,103489.41
2023-02-13T13:55:02.682Z,103491.66
2023-02-13T13:57:41.431Z,103490.56
2023-02-13T14:00:08.197Z,103484.88
2023-02-13T14:02:40.799Z,103488.47
2023-02-13T14:05:13.397Z,103483.38
2023-02-13T14:07:44.218Z,103480.06
2023-02-13T14:10:19.952Z,103474.00
2023-02-13T14:12:48.713Z,103473.19
2023-02-13T14:15:33.697Z,103471.69
2023-02-13T14:18:04.067Z,103464.19
2023-02-13T14:20:52.171Z,103466.13
2023-02-13T14:23:30.983Z,103468.81
2023-02-13T14:26:18.724Z,103472.47
2023-02-13T14:28:48.626Z,103461.50
2023-02-13T14:31:29.798Z,103466.56
2023-02-13T14:33:56.653Z,103464.38
2023-02-13T14:36:30.182Z,103470.63
2023-02-13T14:38:58.269Z,103463.28
2023-02-13T14:41:43.975Z,103463.63
2023-02-13T14:44:18.092Z,103461.47
2023-02-13T14:46:48.888Z,103457.38
2023-02-13T14:49:37.006Z,103459.50
2023-02-13T14:52:08.361Z,103462.50
2023-02-13T14:54:38.297Z,103457.00
2023-02-13T14:57:05.268Z,103456.44
2023-02-13T14:59:36.761Z,103451.50
2023-02-13T15:02:16.962Z,103453.13
2023-02-13T15:04:47.042Z,103453.69
2023-02-13T15:07:19.963Z,103454.97
2023-02-13T15:09:52.833Z,103460.25
2023-02-13T15:12:26.829Z,103447.81
2023-02-13T15:14:53.744Z,103446.16
2023-02-13T15:17:26.353Z,103451.06
2023-02-13T15:19:54.495Z,103452.47
2023-02-13T15:22:30.789Z,103456.97
2023-02-13T15:24:58.456Z,103454.22
2023-02-13T15:27:26.879Z,103451.81
2023-02-13T15:30:14.184Z,103447.28
2023-02-13T15:32:41.650Z,103447.28
2023-02-13T15:35:25.382Z,103442.25
2023-02-13T15:37:52.669Z,103447.06
2023-02-13T15:40:24.975Z,103443.84
2023-02-13T15:42:52.128Z,103444.13
2023-02-13T15:45:20.423Z,103442.81
2023-02-13T15:47:48.103Z,103446.31
2023-02-13T15:50:38.609Z,103440.56
2023-02-13T15:53:10.789Z,103437.94
2023-02-13T15:55:38.446Z,103436.75
2023-02-13T15:58:05.530Z,103433.03
2023-02-13T16:00:34.099Z,103431.28
2023-02-13T16:03:02.689Z,103435.66
2023-02-13T16:05:39.935Z,103442.03
2023-02-13T16:08:25.741Z,103442.28
2023-02-13T16:11:08.905Z,103433.28
2023-02-13T16:13:35.782Z,103433.59
2023-02-13T16:16:08.092Z,103430.56
2023-02-13T16:18:35.131Z,103432.53
2023-02-13T16:21:06.548Z,103432.09
2023-02-13T16:23:33.373Z,103436.72
2023-02-13T16:26:06.824Z,103437.16
2023-02-13T16:28:34.003Z,103432.41
2023-02-13T16:31:04.181Z,103430.03
2023-02-13T16:33:31.986Z,103428.75
2023-02-13T16:36:01.609Z,103427.59
2023-02-13T16:38:30.294Z,103432.28
2023-02-13T16:40:59.608Z,103431.09
2023-02-13T16:43:33.197Z,103434.00
2023-02-13T16:46:15.016Z,103418.31
2023-02-13T16:48:43.176Z,103425.06
2023-02-13T16:51:10.107Z,103423.69
2023-02-13T16:53:37.348Z,103423.22
2023-02-13T16:56:11.229Z,103416.66
2023-02-13T16:58:38.352Z,103421.41
2023-02-13T17:01:05.363Z,103417.72
2023-02-13T17:03:32.913Z,103430.63
2023-02-13T17:06:03.609Z,103425.84
2023-02-13T17:08:30.791Z,103433.91
2023-02-13T17:11:07.481Z,103438.56
2023-02-13T17:13:34.622Z,103432.88
2023-02-13T17:16:01.465Z,103436.84
2023-02-13T17:18:28.525Z,103445.75
2023-02-13T17:20:55.302Z,103445.13
2023-02-13T17:23:23.845Z,103452.31
2023-02-13T17:25:52.051Z,103442.25
2023-02-13T17:28:20.913Z,103448.69
2023-02-13T17:30:50.070Z,103443.06
2023-02-13T17:33:20.182Z,103437.28
2023-02-13T17:35:47.228Z,103433.47
2023-02-13T17:38:14.486Z,103423.97
2023-02-13T17:40:42.176Z,103432.81
2023-02-13T17:43:10.961Z,103431.41
2023-02-13T17:45:38.069Z,103443.41
2023-02-13T17:48:05.475Z,103431.72
2023-02-13T17:50:33.382Z,103443.22
2023-02-13T17:53:04.302Z,103438.38
2023-02-13T17:55:31.704Z,103427.78
2023-02-13T17:57:59.337Z,103437.16
2023-02-13T18:00:28.438Z,103432.47
2023-02-13T18:02:55.478Z,103430.47
2023-02-13T18:05:22.603Z,103427.78
2023-02-13T18:07:49.380Z,103431.91
2023-02-13T18:10:18.323Z,103425.88
2023-02-13T18:12:46.372Z,103430.03
2023-02-13T18:15:13.375Z,103422.84
2023-02-13T18:17:40.277Z,103434.50
2023-02-13T18:20:07.727Z,103434.25
2023-02-13T18:22:34.474Z,103430.56
2023-02-13T18:25:01.845Z,103435.59
2023-02-13T18:27:28.869Z,103441.44
2023-02-13T18:29:55.845Z,103440.22
2023-02-13T18:32:22.894Z,103438.28
2023-02-13T18:34:50.163Z,103439.88
2023-02-13T18:37:18.323Z,103436.16
2023-02-13T18:39:45.292Z,103439.16
2023-02-13T18:42:13.297Z,103431.97
2023-02-13T18:44:40.521Z,103430.84
2023-02-13T18:47:07.322Z,103430.53
2023-02-13T18:49:34.111Z,103425.94
2023-02-13T18:52:02.635Z,103433.41
2023-02-13T18:54:29.393Z,103438.34
2023-02-13T18:56:56.359Z,103436.44
2023-02-13T18:59:23.510Z,103432.84
2023-02-13T19:01:50.768Z,103415.81
2023-02-13T19:04:18.181Z,103434.41
2023-02-13T19:06:45.257Z,103428.69
2023-02-13T19:09:12.075Z,103426.53
2023-02-13T19:11:39.389Z,103429.00
2023-02-13T19:14:06.775Z,103416.47
2023-02-13T19:16:34.394Z,103420.97
2023-02-13T19:19:02.608Z,103413.09
2023-02-13T19:21:30.396Z,103416.69
2023-02-13T19:23:57.348Z,103416.59
2023-02-13T19:26:25.518Z,103413.00
2023-02-13T19:28:52.358Z,103415.56
2023-02-13T19:31:23.335Z,103411.88
2023-02-13T19:33:50.855Z,103415.09
2023-02-13T19:36:21.200Z,103419.00
2023-02-13T19:38:48.510Z,103408.59
2023-02-13T19:41:17.074Z,103413.63
2023-02-13T19:43:53.219Z,103421.91
2023-02-13T19:46:21.738Z,103412.91
2023-02-13T19:48:48.833Z,103416.03
2023-02-13T19:51:18.639Z,103422.63
2023-02-13T19:53:45.584Z,103423.16
2023-02-13T19:56:13.320Z,103421.91
2023-02-13T19:58:40.632Z,103416.28
2023-02-13T20:01:12.109Z,103422.97
2023-02-13T20:03:39.466Z,103421.81
2023-02-13T20:06:07.590Z,103413.06
2023-02-13T20:08:34.641Z,103418.00
2023-02-13T20:11:01.672Z,103411.72
2023-02-13T20:13:29.227Z,103421.50
2023-02-13T20:15:56.297Z,103431.19
2023-02-13T20:18:23.216Z,103423.00
2023-02-13T20:20:50.194Z,103425.06
2023-02-13T20:23:18.419Z,103423.03
2023-02-13T20:25:45.200Z,103432.41
2023-02-13T20:28:12.051Z,103427.13
2023-02-13T20:30:42.341Z,103425.09
2023-02-13T20:33:09.565Z,103432.56
2023-02-13T20:35:36.363Z,103431.28
2023-02-13T20:38:03.689Z,103424.13
2023-02-13T20:40:30.443Z,103435.84
2023-02-13T20:42:57.289Z,103434.44
2023-02-13T20:45:24.598Z,103421.38
2023-02-13T20:47:51.505Z,103433.66
2023-02-13T20:50:18.369Z,103441.91
2023-02-13T20:52:45.155Z,103436.38
2023-02-13T20:55:11.897Z,103441.91
2023-02-13T20:57:39.003Z,103433.94
2023-02-13T21:00:06.322Z,103444.09
2023-02-13T21:02:33.150Z,103451.41
2023-02-13T21:04:59.905Z,103451.94
2023-02-13T21:07:26.675Z,103452.72
2023-02-13T21:09:53.542Z,103445.00
2023-02-13T21:12:20.307Z,103442.34
2023-02-13T21:14:47.308Z,103453.09
2023-02-13T21:17:14.490Z,103451.44
2023-02-13T21:19:41.242Z,103449.91
2023-02-13T21:22:11.896Z,103452.97
2023-02-13T21:24:40.196Z,103462.34
2023-02-13T21:27:07.539Z,103457.22
2023-02-13T21:29:35.575Z,103462.06
2023-02-13T21:32:02.977Z,103454.91
2023-02-13T21:34:29.841Z,103452.06
2023-02-13T21:36:56.647Z,103448.34
2023-02-13T21:39:23.566Z,103457.19
2023-02-13T21:41:50.358Z,103452.44
2023-02-13T21:44:17.225Z,103448.44
2023-02-13T21:46:46.239Z,103447.81
2023-02-13T21:49:14.526Z,103445.50
2023-02-13T21:51:41.404Z,103441.50
2023-02-13T21:54:08.286Z,103446.50
2023-02-13T21:56:36.381Z,103449.56
2023-02-13T21:59:04.110Z,103450.84
2023-02-13T22:01:32.245Z,103442.34
2023-02-13T22:04:01.182Z,103442.44
2023-02-13T22:06:29.428Z,103438.44
2023-02-13T22:09:06.058Z,103446.00
2023-02-13T22:11:33.349Z,103439.84
2023-02-13T22:14:03.926Z,103440.72
2023-02-13T22:16:31.529Z,103442.81
2023-02-13T22:18:59.010Z,103435.00
2023-02-13T22:21:27.064Z,103431.78
2023-02-13T22:23:54.197Z,103428.19
2023-02-13T22:26:28.965Z,103427.78
2023-02-13T22:28:58.915Z,103423.59
2023-02-13T22:31:26.146Z,103423.59
2023-02-13T22:34:05.729Z,103419.97
2023-02-13T22:36:33.704Z,103419.56
2023-02-13T22:39:00.519Z,103411.47
2023-02-13T22:41:27.883Z,103412.00
2023-02-13T22:43:54.674Z,103417.88
2023-02-13T22:46:23.070Z,103411.84
2023-02-13T22:48:52.400Z,103409.28
2023-02-13T22:51:20.880Z,103402.88
2023-02-13T22:53:50.899Z,103405.13
2023-02-13T22:56:18.124Z,103405.00
2023-02-13T22:58:44.940Z,103409.38
2023-02-13T23:01:15.885Z,103408.97
2023-02-13T23:03:43.319Z,103408.84
2023-02-13T23:06:10.873Z,103405.66
2023-02-13T23:08:37.750Z,103403.84
2023-02-13T23:11:27.125Z,103408.34
2023-02-13T23:13:53.869Z,103403.84
2023-02-13T23:16:20.576Z,103398.06
2023-02-13T23:18:51.065Z,103406.34
2023-02-13T23:21:18.634Z,103405.59
2023-02-13T23:23:45.482Z,103420.28
2023-02-13T23:26:12.203Z,103413.38
2023-02-13T23:28:38.986Z,103414.25
2023-02-13T23:31:05.887Z,103414.75
2023-02-13T23:33:32.689Z,103412.19
2023-02-13T23:35:59.476Z,103416.41
2023-02-13T23:38:26.373Z,103417.94
2023-02-13T23:40:53.204Z,103405.91
2023-02-13T23:43:20.006Z,103403.06
2023-02-13T23:45:47.167Z,103413.94
2023-02-13T23:48:14.515Z,103409.78
2023-02-13T23:50:41.556Z,103420.22
2023-02-13T23:53:08.365Z,103410.63
2023-02-13T23:55:35.136Z,103410.91
2023-02-13T23:58:01.943Z,103407.56
